sensor_id;sensor_type;location;lat;lon;timestamp;P1;durP1;ratioP1;P2;durP2;ratioP2
74363;SDS011;62797;49.740;10.154;2023-07-24T00:01:18;7.10;;;4.60;;
74363;SDS011;62797;49.740;10.154;2023-07-24T00:03:44;11.50;;;4.77;;
74363;SDS011;62797;49.740;10.154;2023-07-24T00:06:10;9.90;;;5.03;;
74363;SDS011;62797;49.740;10.154;2023-07-24T00:08:36;7.80;;;5.03;;
74363;SDS011;62797;49.740;10.154;2023-07-24T00:11:01;9.63;;;4.75;;
74363;SDS011;62797;49.740;10.154;2023-07-24T00:13:30;10.18;;;4.63;;
74363;SDS011;62797;49.740;10.154;2023-07-24T00:15:57;8.13;;;4.72;;
74363;SDS011;62797;49.740;10.154;2023-07-24T00:18:22;6.40;;;4.30;;
74363;SDS011;62797;49.740;10.154;2023-07-24T00:20:48;13.87;;;5.30;;
74363;SDS011;62797;49.740;10.154;2023-07-24T00:23:14;8.40;;;4.05;;
74363;SDS011;62797;49.740;10.154;2023-07-24T00:25:39;13.43;;;5.37;;
74363;SDS011;62797;49.740;10.154;2023-07-24T00:28:05;8.97;;;5.20;;
74363;SDS011;62797;49.740;10.154;2023-07-24T00:30:30;9.50;;;4.43;;
74363;SDS011;62797;49.740;10.154;2023-07-24T00:32:57;9.25;;;4.75;;
74363;SDS011;62797;49.740;10.154;2023-07-24T00:35:22;9.43;;;5.00;;
74363;SDS011;62797;49.740;10.154;2023-07-24T00:37:49;9.18;;;5.50;;
74363;SDS011;62797;49.740;10.154;2023-07-24T00:40:14;8.27;;;4.65;;
74363;SDS011;62797;49.740;10.154;2023-07-24T00:42:40;8.00;;;4.88;;
74363;SDS011;62797;49.740;10.154;2023-07-24T00:45:06;7.37;;;4.93;;
74363;SDS011;62797;49.740;10.154;2023-07-24T00:47:33;11.70;;;6.80;;
74363;SDS011;62797;49.740;10.154;2023-07-24T00:49:59;9.57;;;6.17;;
74363;SDS011;62797;49.740;10.154;2023-07-24T00:52:24;8.10;;;5.03;;
74363;SDS011;62797;49.740;10.154;2023-07-24T00:54:50;9.98;;;5.03;;
74363;SDS011;62797;49.740;10.154;2023-07-24T00:57:16;9.25;;;5.38;;
74363;SDS011;62797;49.740;10.154;2023-07-24T00:59:42;8.95;;;5.30;;
74363;SDS011;62797;49.740;10.154;2023-07-24T01:02:09;9.77;;;5.80;;
74363;SDS011;62797;49.740;10.154;2023-07-24T01:04:37;12.35;;;6.13;;
74363;SDS011;62797;49.740;10.154;2023-07-24T01:07:02;13.07;;;6.07;;
74363;SDS011;62797;49.740;10.154;2023-07-24T01:09:28;11.02;;;6.15;;
74363;SDS011;62797;49.740;10.154;2023-07-24T01:14:46;12.50;;;6.63;;
74363;SDS011;62797;49.740;10.154;2023-07-24T01:17:16;13.02;;;7.13;;
74363;SDS011;62797;49.740;10.154;2023-07-24T01:19:50;12.65;;;7.10;;
74363;SDS011;62797;49.740;10.154;2023-07-24T01:22:23;12.25;;;6.70;;
74363;SDS011;62797;49.740;10.154;2023-07-24T01:25:00;15.77;;;6.47;;
74363;SDS011;62797;49.740;10.154;2023-07-24T01:27:28;12.32;;;5.90;;
74363;SDS011;62797;49.740;10.154;2023-07-24T01:29:54;11.60;;;6.00;;
74363;SDS011;62797;49.740;10.154;2023-07-24T01:32:20;15.00;;;6.82;;
74363;SDS011;62797;49.740;10.154;2023-07-24T01:37:12;11.18;;;6.25;;
74363;SDS011;62797;49.740;10.154;2023-07-24T01:42:09;12.07;;;5.85;;
74363;SDS011;62797;49.740;10.154;2023-07-24T01:47:01;10.65;;;6.05;;
74363;SDS011;62797;49.740;10.154;2023-07-24T01:49:27;8.65;;;5.30;;
74363;SDS011;62797;49.740;10.154;2023-07-24T01:51:53;9.67;;;5.70;;
74363;SDS011;62797;49.740;10.154;2023-07-24T01:54:19;11.30;;;6.53;;
74363;SDS011;62797;49.740;10.154;2023-07-24T01:56:44;16.10;;;7.53;;
74363;SDS011;62797;49.740;10.154;2023-07-24T01:59:10;12.82;;;6.78;;
74363;SDS011;62797;49.740;10.154;2023-07-24T02:01:36;11.47;;;6.57;;
74363;SDS011;62797;49.740;10.154;2023-07-24T02:04:02;10.47;;;6.87;;
74363;SDS011;62797;49.740;10.154;2023-07-24T02:06:27;12.07;;;7.20;;
74363;SDS011;62797;49.740;10.154;2023-07-24T02:08:53;12.40;;;6.47;;
74363;SDS011;62797;49.740;10.154;2023-07-24T02:11:19;11.20;;;6.73;;
74363;SDS011;62797;49.740;10.154;2023-07-24T02:13:44;11.40;;;7.13;;
74363;SDS011;62797;49.740;10.154;2023-07-24T02:16:11;11.00;;;5.82;;
74363;SDS011;62797;49.740;10.154;2023-07-24T02:18:41;11.57;;;6.70;;
74363;SDS011;62797;49.740;10.154;2023-07-24T02:21:08;12.35;;;7.53;;
74363;SDS011;62797;49.740;10.154;2023-07-24T02:23:37;12.90;;;6.85;;
74363;SDS011;62797;49.740;10.154;2023-07-24T02:26:03;12.85;;;6.88;;
74363;SDS011;62797;49.740;10.154;2023-07-24T02:28:33;12.27;;;6.80;;
74363;SDS011;62797;49.740;10.154;2023-07-24T02:30:58;12.40;;;6.57;;
74363;SDS011;62797;49.740;10.154;2023-07-24T02:33:27;17.67;;;6.97;;
74363;SDS011;62797;49.740;10.154;2023-07-24T02:35:53;12.37;;;6.77;;
74363;SDS011;62797;49.740;10.154;2023-07-24T02:38:18;11.47;;;6.87;;
74363;SDS011;62797;49.740;10.154;2023-07-24T02:40:44;13.17;;;7.77;;
74363;SDS011;62797;49.740;10.154;2023-07-24T02:43:10;11.52;;;6.60;;
74363;SDS011;62797;49.740;10.154;2023-07-24T02:45:37;11.30;;;6.00;;
74363;SDS011;62797;49.740;10.154;2023-07-24T02:48:03;11.80;;;6.53;;
74363;SDS011;62797;49.740;10.154;2023-07-24T02:50:29;11.98;;;7.18;;
74363;SDS011;62797;49.740;10.154;2023-07-24T02:52:57;10.73;;;6.60;;
74363;SDS011;62797;49.740;10.154;2023-07-24T02:55:23;11.55;;;7.22;;
74363;SDS011;62797;49.740;10.154;2023-07-24T02:57:49;10.87;;;6.43;;
74363;SDS011;62797;49.740;10.154;2023-07-24T03:00:15;12.18;;;7.10;;
74363;SDS011;62797;49.740;10.154;2023-07-24T03:02:41;14.20;;;7.72;;
74363;SDS011;62797;49.740;10.154;2023-07-24T03:05:10;13.77;;;6.72;;
74363;SDS011;62797;49.740;10.154;2023-07-24T03:07:36;12.63;;;6.60;;
74363;SDS011;62797;49.740;10.154;2023-07-24T03:10:02;15.23;;;7.78;;
74363;SDS011;62797;49.740;10.154;2023-07-24T03:12:29;23.63;;;7.43;;
74363;SDS011;62797;49.740;10.154;2023-07-24T03:14:55;12.25;;;6.55;;
74363;SDS011;62797;49.740;10.154;2023-07-24T03:17:22;13.67;;;7.57;;
74363;SDS011;62797;49.740;10.154;2023-07-24T03:19:48;28.63;;;8.68;;
74363;SDS011;62797;49.740;10.154;2023-07-24T03:22:14;19.88;;;8.10;;
74363;SDS011;62797;49.740;10.154;2023-07-24T03:24:40;13.52;;;7.22;;
74363;SDS011;62797;49.740;10.154;2023-07-24T03:27:06;14.20;;;7.67;;
74363;SDS011;62797;49.740;10.154;2023-07-24T03:29:31;13.17;;;7.10;;
74363;SDS011;62797;49.740;10.154;2023-07-24T03:31:57;12.40;;;7.97;;
74363;SDS011;62797;49.740;10.154;2023-07-24T03:34:27;12.95;;;7.30;;
74363;SDS011;62797;49.740;10.154;2023-07-24T03:36:52;14.65;;;8.00;;
74363;SDS011;62797;49.740;10.154;2023-07-24T03:39:18;15.17;;;7.30;;
74363;SDS011;62797;49.740;10.154;2023-07-24T03:41:44;16.52;;;7.10;;
74363;SDS011;62797;49.740;10.154;2023-07-24T03:44:10;16.23;;;8.20;;
74363;SDS011;62797;49.740;10.154;2023-07-24T03:46:35;15.93;;;8.17;;
74363;SDS011;62797;49.740;10.154;2023-07-24T03:49:03;15.40;;;6.83;;
74363;SDS011;62797;49.740;10.154;2023-07-24T03:51:29;12.98;;;7.25;;
74363;SDS011;62797;49.740;10.154;2023-07-24T03:53:55;15.20;;;8.60;;
74363;SDS011;62797;49.740;10.154;2023-07-24T03:56:21;13.70;;;7.40;;
74363;SDS011;62797;49.740;10.154;2023-07-24T03:58:46;13.47;;;7.90;;
74363;SDS011;62797;49.740;10.154;2023-07-24T04:01:12;16.50;;;7.95;;
74363;SDS011;62797;49.740;10.154;2023-07-24T04:03:38;14.60;;;7.63;;
74363;SDS011;62797;49.740;10.154;2023-07-24T04:06:04;14.37;;;7.77;;
74363;SDS011;62797;49.740;10.154;2023-07-24T04:08:29;13.43;;;7.63;;
74363;SDS011;62797;49.740;10.154;2023-07-24T04:10:57;13.40;;;7.10;;
74363;SDS011;62797;49.740;10.154;2023-07-24T04:13:23;13.70;;;7.35;;
74363;SDS011;62797;49.740;10.154;2023-07-24T04:15:49;15.80;;;8.63;;
74363;SDS011;62797;49.740;10.154;2023-07-24T04:18:15;15.27;;;7.53;;
74363;SDS011;62797;49.740;10.154;2023-07-24T04:20:41;13.57;;;7.67;;
74363;SDS011;62797;49.740;10.154;2023-07-24T04:23:06;15.77;;;8.13;;
74363;SDS011;62797;49.740;10.154;2023-07-24T04:25:32;15.33;;;7.50;;
74363;SDS011;62797;49.740;10.154;2023-07-24T04:27:58;14.93;;;8.17;;
74363;SDS011;62797;49.740;10.154;2023-07-24T04:30:23;15.47;;;8.63;;
74363;SDS011;62797;49.740;10.154;2023-07-24T04:32:49;15.77;;;7.53;;
74363;SDS011;62797;49.740;10.154;2023-07-24T04:35:15;14.43;;;7.72;;
74363;SDS011;62797;49.740;10.154;2023-07-24T04:37:41;12.47;;;7.73;;
74363;SDS011;62797;49.740;10.154;2023-07-24T04:40:07;13.10;;;7.70;;
74363;SDS011;62797;49.740;10.154;2023-07-24T04:42:33;17.48;;;8.68;;
74363;SDS011;62797;49.740;10.154;2023-07-24T04:44:58;15.73;;;7.90;;
74363;SDS011;62797;49.740;10.154;2023-07-24T04:47:24;16.40;;;8.10;;
74363;SDS011;62797;49.740;10.154;2023-07-24T04:49:50;17.13;;;8.30;;
74363;SDS011;62797;49.740;10.154;2023-07-24T04:52:15;13.48;;;7.45;;
74363;SDS011;62797;49.740;10.154;2023-07-24T04:54:41;44.28;;;10.27;;
74363;SDS011;62797;49.740;10.154;2023-07-24T04:57:07;15.20;;;8.52;;
74363;SDS011;62797;49.740;10.154;2023-07-24T04:59:33;16.90;;;9.43;;
74363;SDS011;62797;49.740;10.154;2023-07-24T05:01:58;17.93;;;8.50;;
74363;SDS011;62797;49.740;10.154;2023-07-24T05:04:24;16.50;;;8.35;;
74363;SDS011;62797;49.740;10.154;2023-07-24T05:06:53;15.50;;;8.20;;
74363;SDS011;62797;49.740;10.154;2023-07-24T05:09:19;16.77;;;7.72;;
74363;SDS011;62797;49.740;10.154;2023-07-24T05:11:54;14.57;;;8.45;;
74363;SDS011;62797;49.740;10.154;2023-07-24T05:14:19;17.52;;;7.97;;
74363;SDS011;62797;49.740;10.154;2023-07-24T05:16:45;14.53;;;8.40;;
74363;SDS011;62797;49.740;10.154;2023-07-24T05:19:11;19.33;;;8.82;;
74363;SDS011;62797;49.740;10.154;2023-07-24T05:21:36;16.13;;;9.53;;
74363;SDS011;62797;49.740;10.154;2023-07-24T05:24:02;16.27;;;9.70;;
74363;SDS011;62797;49.740;10.154;2023-07-24T05:26:28;15.48;;;8.52;;
74363;SDS011;62797;49.740;10.154;2023-07-24T05:28:54;13.73;;;8.07;;
74363;SDS011;62797;49.740;10.154;2023-07-24T05:31:19;15.57;;;8.13;;
74363;SDS011;62797;49.740;10.154;2023-07-24T05:33:45;19.02;;;7.78;;
74363;SDS011;62797;49.740;10.154;2023-07-24T05:36:11;20.23;;;8.17;;
74363;SDS011;62797;49.740;10.154;2023-07-24T05:38:36;17.90;;;8.57;;
74363;SDS011;62797;49.740;10.154;2023-07-24T05:41:02;16.93;;;8.73;;
74363;SDS011;62797;49.740;10.154;2023-07-24T05:43:29;17.83;;;8.82;;
74363;SDS011;62797;49.740;10.154;2023-07-24T05:48:22;20.75;;;9.50;;
74363;SDS011;62797;49.740;10.154;2023-07-24T05:53:14;13.82;;;7.07;;
74363;SDS011;62797;49.740;10.154;2023-07-24T05:55:40;14.75;;;8.35;;
74363;SDS011;62797;49.740;10.154;2023-07-24T05:58:06;18.38;;;8.93;;
74363;SDS011;62797;49.740;10.154;2023-07-24T06:00:32;17.08;;;8.93;;
74363;SDS011;62797;49.740;10.154;2023-07-24T06:02:58;13.10;;;7.65;;
74363;SDS011;62797;49.740;10.154;2023-07-24T06:05:23;17.87;;;8.40;;
74363;SDS011;62797;49.740;10.154;2023-07-24T06:07:49;17.87;;;7.97;;
74363;SDS011;62797;49.740;10.154;2023-07-24T06:10:15;12.63;;;7.20;;
74363;SDS011;62797;49.740;10.154;2023-07-24T06:12:40;16.05;;;8.57;;
74363;SDS011;62797;49.740;10.154;2023-07-24T06:15:06;18.93;;;8.40;;
74363;SDS011;62797;49.740;10.154;2023-07-24T06:17:32;16.00;;;7.30;;
74363;SDS011;62797;49.740;10.154;2023-07-24T06:20:00;14.30;;;8.70;;
74363;SDS011;62797;49.740;10.154;2023-07-24T06:22:26;14.23;;;8.00;;
74363;SDS011;62797;49.740;10.154;2023-07-24T06:24:51;15.33;;;8.33;;
74363;SDS011;62797;49.740;10.154;2023-07-24T06:27:17;14.90;;;8.20;;
74363;SDS011;62797;49.740;10.154;2023-07-24T06:29:43;15.70;;;9.07;;
74363;SDS011;62797;49.740;10.154;2023-07-24T06:32:08;13.30;;;7.80;;
74363;SDS011;62797;49.740;10.154;2023-07-24T06:34:34;13.03;;;7.77;;
74363;SDS011;62797;49.740;10.154;2023-07-24T06:37:00;13.05;;;8.63;;
74363;SDS011;62797;49.740;10.154;2023-07-24T06:39:26;12.95;;;7.63;;
74363;SDS011;62797;49.740;10.154;2023-07-24T06:41:53;15.00;;;9.20;;
74363;SDS011;62797;49.740;10.154;2023-07-24T06:44:20;14.13;;;8.10;;
74363;SDS011;62797;49.740;10.154;2023-07-24T06:46:46;18.20;;;8.75;;
74363;SDS011;62797;49.740;10.154;2023-07-24T06:49:12;13.50;;;7.78;;
74363;SDS011;62797;49.740;10.154;2023-07-24T06:51:38;12.93;;;7.80;;
74363;SDS011;62797;49.740;10.154;2023-07-24T06:54:06;17.77;;;9.30;;
74363;SDS011;62797;49.740;10.154;2023-07-24T06:56:32;13.32;;;8.73;;
74363;SDS011;62797;49.740;10.154;2023-07-24T06:58:58;13.30;;;8.13;;
74363;SDS011;62797;49.740;10.154;2023-07-24T07:01:23;16.38;;;8.07;;
74363;SDS011;62797;49.740;10.154;2023-07-24T07:03:49;16.63;;;9.07;;
74363;SDS011;62797;49.740;10.154;2023-07-24T07:06:17;14.98;;;8.23;;
74363;SDS011;62797;49.740;10.154;2023-07-24T07:08:43;14.40;;;8.25;;
74363;SDS011;62797;49.740;10.154;2023-07-24T07:11:09;13.27;;;8.02;;
74363;SDS011;62797;49.740;10.154;2023-07-24T07:13:34;14.77;;;8.27;;
74363;SDS011;62797;49.740;10.154;2023-07-24T07:16:00;17.70;;;9.43;;
74363;SDS011;62797;49.740;10.154;2023-07-24T07:18:26;14.73;;;8.23;;
74363;SDS011;62797;49.740;10.154;2023-07-24T07:20:52;14.15;;;7.85;;
74363;SDS011;62797;49.740;10.154;2023-07-24T07:23:19;14.88;;;8.00;;
74363;SDS011;62797;49.740;10.154;2023-07-24T07:25:45;15.80;;;8.70;;
74363;SDS011;62797;49.740;10.154;2023-07-24T07:28:11;20.55;;;8.50;;
74363;SDS011;62797;49.740;10.154;2023-07-24T07:30:38;15.10;;;7.28;;
74363;SDS011;62797;49.740;10.154;2023-07-24T07:33:03;12.97;;;7.20;;
74363;SDS011;62797;49.740;10.154;2023-07-24T07:35:31;12.90;;;7.63;;
74363;SDS011;62797;49.740;10.154;2023-07-24T07:37:57;15.88;;;7.85;;
74363;SDS011;62797;49.740;10.154;2023-07-24T07:40:24;16.63;;;8.88;;
74363;SDS011;62797;49.740;10.154;2023-07-24T07:42:52;13.60;;;7.10;;
74363;SDS011;62797;49.740;10.154;2023-07-24T07:45:21;14.95;;;8.52;;
74363;SDS011;62797;49.740;10.154;2023-07-24T07:47:50;17.00;;;8.57;;
74363;SDS011;62797;49.740;10.154;2023-07-24T07:50:18;16.90;;;7.60;;
74363;SDS011;62797;49.740;10.154;2023-07-24T07:52:43;12.30;;;6.97;;
74363;SDS011;62797;49.740;10.154;2023-07-24T07:55:09;12.25;;;7.28;;
74363;SDS011;62797;49.740;10.154;2023-07-24T08:00:02;17.42;;;8.48;;
74363;SDS011;62797;49.740;10.154;2023-07-24T08:02:30;16.45;;;9.02;;
74363;SDS011;62797;49.740;10.154;2023-07-24T08:04:57;15.63;;;7.88;;
74363;SDS011;62797;49.740;10.154;2023-07-24T08:07:23;13.48;;;8.10;;
74363;SDS011;62797;49.740;10.154;2023-07-24T08:09:49;15.35;;;7.70;;
74363;SDS011;62797;49.740;10.154;2023-07-24T08:12:15;12.98;;;7.97;;
74363;SDS011;62797;49.740;10.154;2023-07-24T08:14:41;15.65;;;8.75;;
74363;SDS011;62797;49.740;10.154;2023-07-24T08:17:07;14.80;;;8.40;;
74363;SDS011;62797;49.740;10.154;2023-07-24T08:19:35;12.98;;;7.70;;
74363;SDS011;62797;49.740;10.154;2023-07-24T08:22:01;15.75;;;8.30;;
74363;SDS011;62797;49.740;10.154;2023-07-24T08:24:26;13.38;;;8.50;;
74363;SDS011;62797;49.740;10.154;2023-07-24T08:26:52;16.63;;;8.98;;
74363;SDS011;62797;49.740;10.154;2023-07-24T08:29:18;13.10;;;8.05;;
74363;SDS011;62797;49.740;10.154;2023-07-24T08:31:44;11.88;;;7.45;;
74363;SDS011;62797;49.740;10.154;2023-07-24T08:34:10;13.00;;;7.82;;
74363;SDS011;62797;49.740;10.154;2023-07-24T08:36:35;13.88;;;8.80;;
74363;SDS011;62797;49.740;10.154;2023-07-24T08:39:02;13.75;;;7.18;;
74363;SDS011;62797;49.740;10.154;2023-07-24T08:41:28;15.45;;;7.97;;
74363;SDS011;62797;49.740;10.154;2023-07-24T08:43:55;16.77;;;8.57;;
74363;SDS011;62797;49.740;10.154;2023-07-24T08:46:20;14.50;;;8.63;;
74363;SDS011;62797;49.740;10.154;2023-07-24T08:48:47;15.68;;;7.82;;
74363;SDS011;62797;49.740;10.154;2023-07-24T08:51:13;17.48;;;9.50;;
74363;SDS011;62797;49.740;10.154;2023-07-24T08:53:44;18.98;;;9.75;;
74363;SDS011;62797;49.740;10.154;2023-07-24T08:56:10;47.58;;;12.25;;
74363;SDS011;62797;49.740;10.154;2023-07-24T08:58:40;31.88;;;11.05;;
74363;SDS011;62797;49.740;10.154;2023-07-24T09:01:06;22.55;;;10.18;;
74363;SDS011;62797;49.740;10.154;2023-07-24T09:05:58;19.20;;;9.30;;
74363;SDS011;62797;49.740;10.154;2023-07-24T09:08:29;21.17;;;9.13;;
74363;SDS011;62797;49.740;10.154;2023-07-24T09:10:59;21.02;;;9.82;;
74363;SDS011;62797;49.740;10.154;2023-07-24T09:15:51;23.65;;;10.43;;
74363;SDS011;62797;49.740;10.154;2023-07-24T09:18:17;23.30;;;12.20;;
74363;SDS011;62797;49.740;10.154;2023-07-24T09:20:43;21.05;;;9.65;;
74363;SDS011;62797;49.740;10.154;2023-07-24T09:25:37;19.90;;;10.52;;
74363;SDS011;62797;49.740;10.154;2023-07-24T09:28:13;20.02;;;11.07;;
74363;SDS011;62797;49.740;10.154;2023-07-24T09:30:41;23.38;;;10.82;;
74363;SDS011;62797;49.740;10.154;2023-07-24T09:33:09;28.00;;;11.80;;
74363;SDS011;62797;49.740;10.154;2023-07-24T09:35:35;22.35;;;9.63;;
74363;SDS011;62797;49.740;10.154;2023-07-24T09:38:05;17.02;;;9.85;;
74363;SDS011;62797;49.740;10.154;2023-07-24T09:40:41;19.42;;;10.40;;
74363;SDS011;62797;49.740;10.154;2023-07-24T09:45:45;17.45;;;10.57;;
74363;SDS011;62797;49.740;10.154;2023-07-24T09:48:12;19.83;;;11.07;;
74363;SDS011;62797;49.740;10.154;2023-07-24T09:50:44;19.17;;;10.70;;
74363;SDS011;62797;49.740;10.154;2023-07-24T09:58:24;24.48;;;12.60;;
74363;SDS011;62797;49.740;10.154;2023-07-24T10:00:53;18.15;;;10.38;;
74363;SDS011;62797;49.740;10.154;2023-07-24T10:03:21;26.40;;;12.38;;
74363;SDS011;62797;49.740;10.154;2023-07-24T10:05:48;19.85;;;10.75;;
74363;SDS011;62797;49.740;10.154;2023-07-24T10:08:16;19.55;;;10.00;;
74363;SDS011;62797;49.740;10.154;2023-07-24T10:10:43;19.92;;;8.77;;
74363;SDS011;62797;49.740;10.154;2023-07-24T10:13:10;20.15;;;11.25;;
74363;SDS011;62797;49.740;10.154;2023-07-24T10:15:38;18.35;;;9.82;;
74363;SDS011;62797;49.740;10.154;2023-07-24T10:18:08;20.75;;;11.90;;
74363;SDS011;62797;49.740;10.154;2023-07-24T10:20:35;19.42;;;9.90;;
74363;SDS011;62797;49.740;10.154;2023-07-24T10:23:06;16.45;;;10.13;;
74363;SDS011;62797;49.740;10.154;2023-07-24T10:25:34;14.70;;;8.75;;
74363;SDS011;62797;49.740;10.154;2023-07-24T10:28:06;18.05;;;9.77;;
74363;SDS011;62797;49.740;10.154;2023-07-24T10:30:39;15.20;;;9.63;;
74363;SDS011;62797;49.740;10.154;2023-07-24T10:33:10;15.15;;;8.38;;
74363;SDS011;62797;49.740;10.154;2023-07-24T10:38:15;14.17;;;8.27;;
74363;SDS011;62797;49.740;10.154;2023-07-24T10:40:42;16.80;;;9.23;;
74363;SDS011;62797;49.740;10.154;2023-07-24T10:43:11;21.67;;;9.07;;
74363;SDS011;62797;49.740;10.154;2023-07-24T10:48:11;18.80;;;9.10;;
74363;SDS011;62797;49.740;10.154;2023-07-24T10:50:38;61.67;;;21.45;;
74363;SDS011;62797;49.740;10.154;2023-07-24T10:53:08;16.65;;;9.70;;
74363;SDS011;62797;49.740;10.154;2023-07-24T10:55:34;12.73;;;8.02;;
74363;SDS011;62797;49.740;10.154;2023-07-24T10:58:00;15.00;;;8.05;;
74363;SDS011;62797;49.740;10.154;2023-07-24T11:00:26;18.27;;;7.63;;
74363;SDS011;62797;49.740;10.154;2023-07-24T11:05:20;13.18;;;8.50;;
74363;SDS011;62797;49.740;10.154;2023-07-24T11:07:47;14.40;;;8.57;;
74363;SDS011;62797;49.740;10.154;2023-07-24T11:12:42;15.90;;;8.15;;
74363;SDS011;62797;49.740;10.154;2023-07-24T11:15:08;14.95;;;8.55;;
74363;SDS011;62797;49.740;10.154;2023-07-24T11:17:34;13.98;;;8.65;;
74363;SDS011;62797;49.740;10.154;2023-07-24T11:20:12;16.42;;;9.50;;
74363;SDS011;62797;49.740;10.154;2023-07-24T11:22:41;17.05;;;9.13;;
74363;SDS011;62797;49.740;10.154;2023-07-24T11:25:08;14.82;;;8.85;;
74363;SDS011;62797;49.740;10.154;2023-07-24T11:27:41;14.35;;;9.18;;
74363;SDS011;62797;49.740;10.154;2023-07-24T11:30:12;13.55;;;9.13;;
74363;SDS011;62797;49.740;10.154;2023-07-24T11:32:43;15.95;;;9.10;;
74363;SDS011;62797;49.740;10.154;2023-07-24T11:35:10;14.15;;;8.93;;
74363;SDS011;62797;49.740;10.154;2023-07-24T11:37:46;25.70;;;9.20;;
74363;SDS011;62797;49.740;10.154;2023-07-24T11:40:11;17.98;;;8.52;;
74363;SDS011;62797;49.740;10.154;2023-07-24T11:42:40;20.38;;;9.15;;
74363;SDS011;62797;49.740;10.154;2023-07-24T11:45:09;19.52;;;9.52;;
74363;SDS011;62797;49.740;10.154;2023-07-24T11:47:48;15.20;;;9.15;;
74363;SDS011;62797;49.740;10.154;2023-07-24T11:50:14;15.73;;;9.15;;
74363;SDS011;62797;49.740;10.154;2023-07-24T11:52:44;17.45;;;8.85;;
74363;SDS011;62797;49.740;10.154;2023-07-24T11:55:12;14.63;;;7.57;;
74363;SDS011;62797;49.740;10.154;2023-07-24T11:57:39;18.70;;;9.43;;
74363;SDS011;62797;49.740;10.154;2023-07-24T12:00:05;15.50;;;8.67;;
74363;SDS011;62797;49.740;10.154;2023-07-24T12:02:43;13.80;;;8.75;;
74363;SDS011;62797;49.740;10.154;2023-07-24T12:05:09;15.13;;;8.18;;
74363;SDS011;62797;49.740;10.154;2023-07-24T12:07:35;13.55;;;7.85;;
74363;SDS011;62797;49.740;10.154;2023-07-24T12:10:01;14.07;;;8.82;;
74363;SDS011;62797;49.740;10.154;2023-07-24T12:12:36;11.55;;;7.15;;
74363;SDS011;62797;49.740;10.154;2023-07-24T12:15:03;13.43;;;7.90;;
74363;SDS011;62797;49.740;10.154;2023-07-24T12:17:31;13.75;;;8.57;;
74363;SDS011;62797;49.740;10.154;2023-07-24T12:19:57;16.20;;;8.93;;
74363;SDS011;62797;49.740;10.154;2023-07-24T12:22:22;11.03;;;6.73;;
74363;SDS011;62797;49.740;10.154;2023-07-24T12:24:48;11.70;;;7.80;;
74363;SDS011;62797;49.740;10.154;2023-07-24T12:27:14;15.57;;;7.47;;
74363;SDS011;62797;49.740;10.154;2023-07-24T12:29:39;11.38;;;7.88;;
74363;SDS011;62797;49.740;10.154;2023-07-24T12:32:05;17.27;;;8.27;;
74363;SDS011;62797;49.740;10.154;2023-07-24T12:34:31;13.23;;;7.97;;
74363;SDS011;62797;49.740;10.154;2023-07-24T12:36:59;14.10;;;8.20;;
74363;SDS011;62797;49.740;10.154;2023-07-24T12:39:25;14.05;;;8.23;;
74363;SDS011;62797;49.740;10.154;2023-07-24T12:41:50;16.17;;;8.57;;
74363;SDS011;62797;49.740;10.154;2023-07-24T12:44:16;14.85;;;8.45;;
74363;SDS011;62797;49.740;10.154;2023-07-24T12:46:42;11.90;;;7.95;;
74363;SDS011;62797;49.740;10.154;2023-07-24T12:49:07;13.20;;;8.82;;
74363;SDS011;62797;49.740;10.154;2023-07-24T12:51:33;16.58;;;8.80;;
74363;SDS011;62797;49.740;10.154;2023-07-24T12:53:59;12.07;;;7.97;;
74363;SDS011;62797;49.740;10.154;2023-07-24T12:56:24;15.88;;;8.88;;
74363;SDS011;62797;49.740;10.154;2023-07-24T12:58:50;11.00;;;7.57;;
74363;SDS011;62797;49.740;10.154;2023-07-24T13:01:16;13.60;;;7.85;;
74363;SDS011;62797;49.740;10.154;2023-07-24T13:03:41;13.32;;;8.02;;
74363;SDS011;62797;49.740;10.154;2023-07-24T13:06:07;15.43;;;7.85;;
74363;SDS011;62797;49.740;10.154;2023-07-24T13:08:33;15.48;;;8.38;;
74363;SDS011;62797;49.740;10.154;2023-07-24T13:10:58;12.68;;;6.93;;
74363;SDS011;62797;49.740;10.154;2023-07-24T13:13:27;15.13;;;8.10;;
74363;SDS011;62797;49.740;10.154;2023-07-24T13:15:52;11.35;;;7.70;;
74363;SDS011;62797;49.740;10.154;2023-07-24T13:18:18;12.05;;;6.97;;
74363;SDS011;62797;49.740;10.154;2023-07-24T13:20:45;11.02;;;7.75;;
74363;SDS011;62797;49.740;10.154;2023-07-24T13:23:11;15.65;;;8.27;;
74363;SDS011;62797;49.740;10.154;2023-07-24T13:25:37;11.15;;;7.50;;
74363;SDS011;62797;49.740;10.154;2023-07-24T13:28:02;13.98;;;7.88;;
74363;SDS011;62797;49.740;10.154;2023-07-24T13:30:28;9.40;;;6.45;;
74363;SDS011;62797;49.740;10.154;2023-07-24T13:32:54;11.18;;;7.65;;
74363;SDS011;62797;49.740;10.154;2023-07-24T13:35:19;11.50;;;7.18;;
74363;SDS011;62797;49.740;10.154;2023-07-24T13:37:45;11.70;;;7.50;;
74363;SDS011;62797;49.740;10.154;2023-07-24T13:40:11;10.68;;;7.07;;
74363;SDS011;62797;49.740;10.154;2023-07-24T13:42:37;14.98;;;7.85;;
74363;SDS011;62797;49.740;10.154;2023-07-24T13:45:03;11.55;;;7.63;;
74363;SDS011;62797;49.740;10.154;2023-07-24T13:47:29;11.35;;;7.43;;
74363;SDS011;62797;49.740;10.154;2023-07-24T13:49:55;16.45;;;8.52;;
74363;SDS011;62797;49.740;10.154;2023-07-24T13:52:21;12.15;;;6.95;;
74363;SDS011;62797;49.740;10.154;2023-07-24T13:54:46;11.43;;;6.88;;
74363;SDS011;62797;49.740;10.154;2023-07-24T13:57:13;14.00;;;8.20;;
74363;SDS011;62797;49.740;10.154;2023-07-24T13:59:39;15.60;;;7.93;;
74363;SDS011;62797;49.740;10.154;2023-07-24T14:02:05;13.30;;;7.38;;
74363;SDS011;62797;49.740;10.154;2023-07-24T14:04:31;10.93;;;7.70;;
74363;SDS011;62797;49.740;10.154;2023-07-24T14:06:57;12.77;;;7.03;;
74363;SDS011;62797;49.740;10.154;2023-07-24T14:09:25;11.68;;;7.85;;
74363;SDS011;62797;49.740;10.154;2023-07-24T14:11:51;13.68;;;7.45;;
74363;SDS011;62797;49.740;10.154;2023-07-24T14:14:17;17.85;;;8.05;;
74363;SDS011;62797;49.740;10.154;2023-07-24T14:16:43;13.35;;;7.65;;
74363;SDS011;62797;49.740;10.154;2023-07-24T14:19:09;11.93;;;7.70;;
74363;SDS011;62797;49.740;10.154;2023-07-24T14:21:35;11.70;;;6.63;;
74363;SDS011;62797;49.740;10.154;2023-07-24T14:24:01;11.45;;;7.95;;
74363;SDS011;62797;49.740;10.154;2023-07-24T14:26:26;16.85;;;8.85;;
74363;SDS011;62797;49.740;10.154;2023-07-24T14:28:52;12.55;;;7.45;;
74363;SDS011;62797;49.740;10.154;2023-07-24T14:31:18;9.85;;;7.00;;
74363;SDS011;62797;49.740;10.154;2023-07-24T14:33:43;11.85;;;7.30;;
74363;SDS011;62797;49.740;10.154;2023-07-24T14:36:09;11.93;;;7.28;;
74363;SDS011;62797;49.740;10.154;2023-07-24T14:38:34;12.77;;;8.00;;
74363;SDS011;62797;49.740;10.154;2023-07-24T14:41:00;12.85;;;7.30;;
74363;SDS011;62797;49.740;10.154;2023-07-24T14:43:26;11.38;;;6.97;;
74363;SDS011;62797;49.740;10.154;2023-07-24T14:45:51;16.23;;;8.70;;
74363;SDS011;62797;49.740;10.154;2023-07-24T14:48:17;11.05;;;6.63;;
74363;SDS011;62797;49.740;10.154;2023-07-24T14:50:43;12.63;;;7.30;;
74363;SDS011;62797;49.740;10.154;2023-07-24T14:53:08;15.80;;;7.05;;
74363;SDS011;62797;49.740;10.154;2023-07-24T14:55:34;11.02;;;7.45;;
74363;SDS011;62797;49.740;10.154;2023-07-24T14:58:00;12.57;;;7.18;;
74363;SDS011;62797;49.740;10.154;2023-07-24T15:00:25;15.13;;;7.78;;